sensor_id;sensor_type;location;lat;lon;timestamp;temperature;humidity
39103;DHT22;24847;48.218;16.414;2023-02-01T00:00:25;3.90;99.90
39103;DHT22;24847;48.218;16.414;2023-02-01T00:05:27;4.00;99.90
39103;DHT22;24847;48.218;16.414;2023-02-01T00:10:31;4.00;99.90
39103;DHT22;24847;48.218;16.414;2023-02-01T00:15:33;4.00;99.90
39103;DHT22;24847;48.218;16.414;2023-02-01T00:20:35;3.90;99.90
39103;DHT22;24847;48.218;16.414;2023-02-01T00:25:39;3.90;99.90
39103;DHT22;24847;48.218;16.414;2023-02-01T00:30:42;4.10;99.90
39103;DHT22;24847;48.218;16.414;2023-02-01T00:35:44;4.00;99.90
39103;DHT22;24847;48.218;16.414;2023-02-01T00:40:48;4.10;99.90
39103;DHT22;24847;48.218;16.414;2023-02-01T00:45:50;4.10;99.90
39103;DHT22;24847;48.218;16.414;2023-02-01T00:50:53;4.10;99.90
39103;DHT22;24847;48.218;16.414;2023-02-01T00:55:57;4.10;99.90
39103;DHT22;24847;48.218;16.414;2023-02-01T01:01:04;4.10;99.90
39103;DHT22;24847;48.218;16.414;2023-02-01T01:06:09;4.10;99.90
39103;DHT22;24847;48.218;16.414;2023-02-01T01:11:15;4.10;99.90
39103;DHT22;24847;48.218;16.414;2023-02-01T01:16:20;4.20;99.90
39103;DHT22;24847;48.218;16.414;2023-02-01T01:21:23;4.20;99.90
39103;DHT22;24847;48.218;16.414;2023-02-01T01:26:28;4.20;99.90
39103;DHT22;24847;48.218;16.414;2023-02-01T01:31:31;4.20;99.90
39103;DHT22;24847;48.218;16.414;2023-02-01T01:36:34;4.30;99.90
39103;DHT22;24847;48.218;16.414;2023-02-01T01:41:37;4.30;99.90
39103;DHT22;24847;48.218;16.414;2023-02-01T01:46:40;4.30;99.90
39103;DHT22;24847;48.218;16.414;2023-02-01T01:51:45;4.30;99.90
39103;DHT22;24847;48.218;16.414;2023-02-01T01:56:53;4.30;99.90
39103;DHT22;24847;48.218;16.414;2023-02-01T02:01:58;4.20;99.90
39103;DHT22;24847;48.218;16.414;2023-02-01T02:07:03;4.20;99.90
39103;DHT22;24847;48.218;16.414;2023-02-01T02:12:08;4.20;99.90
39103;DHT22;24847;48.218;16.414;2023-02-01T02:17:26;4.20;99.90
39103;DHT22;24847;48.218;16.414;2023-02-01T02:22:55;4.20;99.90
39103;DHT22;24847;48.218;16.414;2023-02-01T02:28:20;4.30;99.90
39103;DHT22;24847;48.218;16.414;2023-02-01T02:33:52;4.30;99.90
39103;DHT22;24847;48.218;16.414;2023-02-01T02:39:07;4.40;99.90
39103;DHT22;24847;48.218;16.414;2023-02-01T02:44:23;4.40;99.90
39103;DHT22;24847;48.218;16.414;2023-02-01T02:49:58;4.30;99.90
39103;DHT22;24847;48.218;16.414;2023-02-01T02:55:23;4.40;99.90
39103;DHT22;24847;48.218;16.414;2023-02-01T03:00:30;4.40;99.90
39103;DHT22;24847;48.218;16.414;2023-02-01T03:05:52;4.30;99.90
39103;DHT22;24847;48.218;16.414;2023-02-01T03:10:59;4.40;99.90
39103;DHT22;24847;48.218;16.414;2023-02-01T03:16:08;4.40;99.90
39103;DHT22;24847;48.218;16.414;2023-02-01T03:21:21;4.40;99.90
39103;DHT22;24847;48.218;16.414;2023-02-01T03:26:26;4.30;99.90
39103;DHT22;24847;48.218;16.414;2023-02-01T03:31:30;4.40;99.90
39103;DHT22;24847;48.218;16.414;2023-02-01T03:36:38;4.40;99.90
39103;DHT22;24847;48.218;16.414;2023-02-01T03:41:44;4.30;99.90
39103;DHT22;24847;48.218;16.414;2023-02-01T03:46:53;4.30;99.90
39103;DHT22;24847;48.218;16.414;2023-02-01T03:51:59;4.40;99.90
39103;DHT22;24847;48.218;16.414;2023-02-01T03:57:07;4.40;99.90
39103;DHT22;24847;48.218;16.414;2023-02-01T04:02:12;4.40;99.90
39103;DHT22;24847;48.218;16.414;2023-02-01T04:07:15;4.40;99.90
39103;DHT22;24847;48.218;16.414;2023-02-01T04:12:19;4.40;99.90
39103;DHT22;24847;48.218;16.414;2023-02-01T04:17:21;4.40;99.90
39103;DHT22;24847;48.218;16.414;2023-02-01T04:22:25;4.40;99.90
39103;DHT22;24847;48.218;16.414;2023-02-01T04:27:29;4.40;99.90
39103;DHT22;24847;48.218;16.414;2023-02-01T04:32:31;4.50;99.90
39103;DHT22;24847;48.218;16.414;2023-02-01T04:37:35;4.40;99.90
39103;DHT22;24847;48.218;16.414;2023-02-01T04:42:37;4.40;99.90
39103;DHT22;24847;48.218;16.414;2023-02-01T04:47:39;4.60;99.90
39103;DHT22;24847;48.218;16.414;2023-02-01T04:52:43;4.50;99.90
39103;DHT22;24847;48.218;16.414;2023-02-01T04:57:46;4.40;99.90
39103;DHT22;24847;48.218;16.414;2023-02-01T05:02:49;4.60;99.90
39103;DHT22;24847;48.218;16.414;2023-02-01T05:07:52;4.60;99.90
39103;DHT22;24847;48.218;16.414;2023-02-01T05:12:55;4.60;99.90
39103;DHT22;24847;48.218;16.414;2023-02-01T05:18:20;4.60;99.90
39103;DHT22;24847;48.218;16.414;2023-02-01T05:23:24;4.60;99.90
39103;DHT22;24847;48.218;16.414;2023-02-01T05:28:26;4.70;99.90
39103;DHT22;24847;48.218;16.414;2023-02-01T05:33:29;4.60;99.90
39103;DHT22;24847;48.218;16.414;2023-02-01T05:38:32;4.70;99.90
39103;DHT22;24847;48.218;16.414;2023-02-01T05:43:35;4.60;99.90
39103;DHT22;24847;48.218;16.414;2023-02-01T05:48:37;4.60;99.90
39103;DHT22;24847;48.218;16.414;2023-02-01T05:53:41;4.70;99.90
39103;DHT22;24847;48.218;16.414;2023-02-01T05:58:43;4.70;99.90
39103;DHT22;24847;48.218;16.414;2023-02-01T06:03:46;4.70;99.90
39103;DHT22;24847;48.218;16.414;2023-02-01T06:08:49;4.70;99.90
39103;DHT22;24847;48.218;16.414;2023-02-01T06:13:52;4.70;99.90
39103;DHT22;24847;48.218;16.414;2023-02-01T06:18:54;4.80;99.90
39103;DHT22;24847;48.218;16.414;2023-02-01T06:23:58;4.70;99.90
39103;DHT22;24847;48.218;16.414;2023-02-01T06:29:00;4.80;99.90
39103;DHT22;24847;48.218;16.414;2023-02-01T06:34:03;4.80;99.90
39103;DHT22;24847;48.218;16.414;2023-02-01T06:39:06;4.90;99.90
39103;DHT22;24847;48.218;16.414;2023-02-01T06:44:09;4.90;99.90
39103;DHT22;24847;48.218;16.414;2023-02-01T06:49:11;4.90;99.90
39103;DHT22;24847;48.218;16.414;2023-02-01T06:54:15;5.00;99.90
39103;DHT22;24847;48.218;16.414;2023-02-01T06:59:18;5.10;99.90
39103;DHT22;24847;48.218;16.414;2023-02-01T07:04:20;5.10;99.90
39103;DHT22;24847;48.218;16.414;2023-02-01T07:09:24;5.10;99.90
39103;DHT22;24847;48.218;16.414;2023-02-01T07:14:26;5.10;99.90
39103;DHT22;24847;48.218;16.414;2023-02-01T07:19:29;5.10;99.90
39103;DHT22;24847;48.218;16.414;2023-02-01T07:24:33;5.10;99.90
39103;DHT22;24847;48.218;16.414;2023-02-01T07:29:36;5.20;99.90
39103;DHT22;24847;48.218;16.414;2023-02-01T07:34:38;5.30;99.90
39103;DHT22;24847;48.218;16.414;2023-02-01T07:39:41;5.20;99.90
39103;DHT22;24847;48.218;16.414;2023-02-01T07:44:44;5.30;99.90
39103;DHT22;24847;48.218;16.414;2023-02-01T07:49:46;5.20;99.90
39103;DHT22;24847;48.218;16.414;2023-02-01T07:54:50;5.30;99.90
39103;DHT22;24847;48.218;16.414;2023-02-01T07:59:52;5.30;99.90
39103;DHT22;24847;48.218;16.414;2023-02-01T08:05:12;5.40;99.90
39103;DHT22;24847;48.218;16.414;2023-02-01T08:10:16;5.30;99.90
39103;DHT22;24847;48.218;16.414;2023-02-01T08:15:19;5.30;99.90
39103;DHT22;24847;48.218;16.414;2023-02-01T08:20:22;5.20;99.90
39103;DHT22;24847;48.218;16.414;2023-02-01T08:25:26;5.10;99.90
39103;DHT22;24847;48.218;16.414;2023-02-01T08:30:28;5.30;99.90
39103;DHT22;24847;48.218;16.414;2023-02-01T08:35:31;5.50;99.90
39103;DHT22;24847;48.218;16.414;2023-02-01T08:40:35;5.40;99.90
39103;DHT22;24847;48.218;16.414;2023-02-01T08:45:37;5.50;99.90
39103;DHT22;24847;48.218;16.414;2023-02-01T08:50:39;5.60;99.90
39103;DHT22;24847;48.218;16.414;2023-02-01T08:55:45;5.60;99.90
39103;DHT22;24847;48.218;16.414;2023-02-01T09:00:47;5.60;99.90
39103;DHT22;24847;48.218;16.414;2023-02-01T09:05:50;5.70;99.90
39103;DHT22;24847;48.218;16.414;2023-02-01T09:10:58;5.60;99.90
39103;DHT22;24847;48.218;16.414;2023-02-01T09:16:01;5.60;99.90
39103;DHT22;24847;48.218;16.414;2023-02-01T09:21:04;5.60;99.90
39103;DHT22;24847;48.218;16.414;2023-02-01T09:26:08;5.60;99.90
39103;DHT22;24847;48.218;16.414;2023-02-01T09:31:12;5.60;99.90
39103;DHT22;24847;48.218;16.414;2023-02-01T09:36:16;5.50;99.90
39103;DHT22;24847;48.218;16.414;2023-02-01T09:41:30;5.40;99.90
39103;DHT22;24847;48.218;16.414;2023-02-01T09:46:39;5.30;99.90
39103;DHT22;24847;48.218;16.414;2023-02-01T09:51:44;5.30;99.90
39103;DHT22;24847;48.218;16.414;2023-02-01T09:56:54;5.20;99.90
39103;DHT22;24847;48.218;16.414;2023-02-01T10:01:58;5.20;99.90
39103;DHT22;24847;48.218;16.414;2023-02-01T10:07:16;5.40;99.90
39103;DHT22;24847;48.218;16.414;2023-02-01T10:13:04;5.50;99.90
39103;DHT22;24847;48.218;16.414;2023-02-01T10:18:22;5.60;99.90
39103;DHT22;24847;48.218;16.414;2023-02-01T10:23:48;5.60;99.90
39103;DHT22;24847;48.218;16.414;2023-02-01T10:29:02;5.90;99.90
39103;DHT22;24847;48.218;16.414;2023-02-01T10:34:14;6.00;99.90
39103;DHT22;24847;48.218;16.414;2023-02-01T10:39:19;6.20;99.90
39103;DHT22;24847;48.218;16.414;2023-02-01T10:44:26;6.10;99.90
39103;DHT22;24847;48.218;16.414;2023-02-01T10:49:36;6.30;99.90
39103;DHT22;24847;48.218;16.414;2023-02-01T10:54:40;6.10;99.90
39103;DHT22;24847;48.218;16.414;2023-02-01T10:59:45;6.10;99.90
39103;DHT22;24847;48.218;16.414;2023-02-01T11:04:47;5.70;99.90
39103;DHT22;24847;48.218;16.414;2023-02-01T11:09:52;5.80;99.90
39103;DHT22;24847;48.218;16.414;2023-02-01T11:15:01;6.00;99.90
39103;DHT22;24847;48.218;16.414;2023-02-01T11:20:16;6.10;99.90
39103;DHT22;24847;48.218;16.414;2023-02-01T11:25:20;5.60;99.90
39103;DHT22;24847;48.218;16.414;2023-02-01T11:30:33;5.50;99.90
39103;DHT22;24847;48.218;16.414;2023-02-01T11:35:37;5.20;99.90
39103;DHT22;24847;48.218;16.414;2023-02-01T11:40:40;5.00;99.90
39103;DHT22;24847;48.218;16.414;2023-02-01T11:45:54;4.90;99.90
39103;DHT22;24847;48.218;16.414;2023-02-01T11:51:14;4.60;99.90
39103;DHT22;24847;48.218;16.414;2023-02-01T11:56:29;4.60;99.90
39103;DHT22;24847;48.218;16.414;2023-02-01T12:01:47;4.50;99.90
39103;DHT22;24847;48.218;16.414;2023-02-01T12:06:59;4.50;99.90
39103;DHT22;24847;48.218;16.414;2023-02-01T12:12:14;4.80;99.90
39103;DHT22;24847;48.218;16.414;2023-02-01T12:17:45;4.80;99.90
39103;DHT22;24847;48.218;16.414;2023-02-01T12:23:06;4.80;99.90
39103;DHT22;24847;48.218;16.414;2023-02-01T12:28:44;5.00;99.90
39103;DHT22;24847;48.218;16.414;2023-02-01T12:34:33;5.30;99.90
39103;DHT22;24847;48.218;16.414;2023-02-01T12:39:42;6.00;99.90
39103;DHT22;24847;48.218;16.414;2023-02-01T12:44:50;7.50;99.90
39103;DHT22;24847;48.218;16.414;2023-02-01T12:50:01;6.40;99.90
39103;DHT22;24847;48.218;16.414;2023-02-01T12:55:14;6.20;99.90
39103;DHT22;24847;48.218;16.414;2023-02-01T13:00:27;7.00;99.90
39103;DHT22;24847;48.218;16.414;2023-02-01T13:05:42;7.70;99.90
39103;DHT22;24847;48.218;16.414;2023-02-01T13:10:54;8.00;99.90
39103;DHT22;24847;48.218;16.414;2023-02-01T13:16:06;7.60;99.90
39103;DHT22;24847;48.218;16.414;2023-02-01T13:21:18;7.30;99.90
39103;DHT22;24847;48.218;16.414;2023-02-01T13:26:22;7.10;99.90
39103;DHT22;24847;48.218;16.414;2023-02-01T13:31:39;6.90;99.90
39103;DHT22;24847;48.218;16.414;2023-02-01T13:37:21;7.50;99.90
39103;DHT22;24847;48.218;16.414;2023-02-01T13:42:31;7.30;99.90
39103;DHT22;24847;48.218;16.414;2023-02-01T13:47:39;7.50;99.90
39103;DHT22;24847;48.218;16.414;2023-02-01T13:52:50;7.20;99.90
39103;DHT22;24847;48.218;16.414;2023-02-01T13:58:15;7.00;99.90
39103;DHT22;24847;48.218;16.414;2023-02-01T14:03:22;7.20;99.90
39103;DHT22;24847;48.218;16.414;2023-02-01T14:08:40;7.10;99.90
39103;DHT22;24847;48.218;16.414;2023-02-01T14:13:44;7.10;99.90
39103;DHT22;24847;48.218;16.414;2023-02-01T14:18:59;6.90;99.90
39103;DHT22;24847;48.218;16.414;2023-02-01T14:24:22;6.70;99.90
39103;DHT22;24847;48.218;16.414;2023-02-01T14:29:30;6.70;99.90
39103;DHT22;24847;48.218;16.414;2023-02-01T14:34:40;6.50;99.90
39103;DHT22;24847;48.218;16.414;2023-02-01T14:39:57;6.20;99.90
39103;DHT22;24847;48.218;16.414;2023-02-01T14:50:52;6.10;99.90
39103;DHT22;24847;48.218;16.414;2023-02-01T14:56:00;5.90;99.90
39103;DHT22;24847;48.218;16.414;2023-02-01T15:01:17;5.90;99.90
39103;DHT22;24847;48.218;16.414;2023-02-01T15:06:26;5.70;99.90
39103;DHT22;24847;48.218;16.414;2023-02-01T15:11:54;5.60;99.90
39103;DHT22;24847;48.218;16.414;2023-02-01T15:17:00;5.60;99.90
39103;DHT22;24847;48.218;16.414;2023-02-01T15:22:02;5.60;99.90
39103;DHT22;24847;48.218;16.414;2023-02-01T15:27:08;5.50;99.90
39103;DHT22;24847;48.218;16.414;2023-02-01T15:32:29;5.50;99.90
39103;DHT22;24847;48.218;16.414;2023-02-01T15:37:32;5.50;99.90
39103;DHT22;24847;48.218;16.414;2023-02-01T15:42:40;5.50;99.90
39103;DHT22;24847;48.218;16.414;2023-02-01T15:47:53;5.50;99.90
39103;DHT22;24847;48.218;16.414;2023-02-01T15:52:56;5.40;99.90
39103;DHT22;24847;48.218;16.414;2023-02-01T15:58:00;5.40;99.90
39103;DHT22;24847;48.218;16.414;2023-02-01T16:03:25;5.40;99.90
39103;DHT22;24847;48.218;16.414;2023-02-01T16:08:30;5.40;99.90
39103;DHT22;24847;48.218;16.414;2023-02-01T16:13:36;5.40;99.90
39103;DHT22;24847;48.218;16.414;2023-02-01T16:18:39;5.40;99.90
39103;DHT22;24847;48.218;16.414;2023-02-01T16:23:41;5.60;99.90
39103;DHT22;24847;48.218;16.414;2023-02-01T16:28:46;5.40;99.90
39103;DHT22;24847;48.218;16.414;2023-02-01T16:33:49;5.40;99.90
39103;DHT22;24847;48.218;16.414;2023-02-01T16:38:52;5.50;99.90
39103;DHT22;24847;48.218;16.414;2023-02-01T16:43:57;5.40;99.90
39103;DHT22;24847;48.218;16.414;2023-02-01T16:48:59;5.50;99.90
39103;DHT22;24847;48.218;16.414;2023-02-01T16:54:03;5.40;99.90
39103;DHT22;24847;48.218;16.414;2023-02-01T16:59:07;5.40;99.90
39103;DHT22;24847;48.218;16.414;2023-02-01T17:04:10;5.40;99.90
39103;DHT22;24847;48.218;16.414;2023-02-01T17:09:13;5.40;99.90
39103;DHT22;24847;48.218;16.414;2023-02-01T17:14:20;5.40;99.90
39103;DHT22;24847;48.218;16.414;2023-02-01T17:19:24;5.50;99.90
39103;DHT22;24847;48.218;16.414;2023-02-01T17:24:29;5.40;99.90
39103;DHT22;24847;48.218;16.414;2023-02-01T17:29:34;5.40;99.90
39103;DHT22;24847;48.218;16.414;2023-02-01T17:34:38;5.30;99.90
39103;DHT22;24847;48.218;16.414;2023-02-01T17:39:41;5.40;99.90
39103;DHT22;24847;48.218;16.414;2023-02-01T17:45:16;5.30;99.90
39103;DHT22;24847;48.218;16.414;2023-02-01T17:50:26;5.30;99.90
39103;DHT22;24847;48.218;16.414;2023-02-01T17:55:33;5.20;99.90
39103;DHT22;24847;48.218;16.414;2023-02-01T18:00:38;5.20;99.90
39103;DHT22;24847;48.218;16.414;2023-02-01T18:05:43;5.30;99.90
39103;DHT22;24847;48.218;16.414;2023-02-01T18:10:53;5.20;99.90
39103;DHT22;24847;48.218;16.414;2023-02-01T18:15:58;5.30;99.90
39103;DHT22;24847;48.218;16.414;2023-02-01T18:21:02;5.20;99.90
39103;DHT22;24847;48.218;16.414;2023-02-01T18:26:09;5.30;99.90
39103;DHT22;24847;48.218;16.414;2023-02-01T18:31:21;5.20;99.90
39103;DHT22;24847;48.218;16.414;2023-02-01T18:36:26;5.30;99.90
39103;DHT22;24847;48.218;16.414;2023-02-01T18:41:30;5.30;99.90
39103;DHT22;24847;48.218;16.414;2023-02-01T18:46:36;5.30;99.90
39103;DHT22;24847;48.218;16.414;2023-02-01T18:51:39;5.20;99.90
39103;DHT22;24847;48.218;16.414;2023-02-01T18:56:44;5.20;99.90
39103;DHT22;24847;48.218;16.414;2023-02-01T19:01:57;5.10;99.90
39103;DHT22;24847;48.218;16.414;2023-02-01T19:07:03;5.10;99.90
39103;DHT22;24847;48.218;16.414;2023-02-01T19:12:08;5.10;99.90
39103;DHT22;24847;48.218;16.414;2023-02-01T19:17:13;5.10;99.90
39103;DHT22;24847;48.218;16.414;2023-02-01T19:22:18;5.10;99.90
39103;DHT22;24847;48.218;16.414;2023-02-01T19:27:22;5.00;99.90
39103;DHT22;24847;48.218;16.414;2023-02-01T19:32:27;5.00;99.90
39103;DHT22;24847;48.218;16.414;2023-02-01T19:37:33;5.00;99.90
39103;DHT22;24847;48.218;16.414;2023-02-01T19:42:36;4.90;99.90
39103;DHT22;24847;48.218;16.414;2023-02-01T19:47:41;4.90;99.90
39103;DHT22;24847;48.218;16.414;2023-02-01T19:52:46;4.90;99.90
39103;DHT22;24847;48.218;16.414;2023-02-01T19:57:49;5.00;99.90
39103;DHT22;24847;48.218;16.414;2023-02-01T20:02:54;5.00;99.90
39103;DHT22;24847;48.218;16.414;2023-02-01T20:07:59;5.00;99.90
39103;DHT22;24847;48.218;16.414;2023-02-01T20:13:02;5.20;99.90
39103;DHT22;24847;48.218;16.414;2023-02-01T20:18:07;5.10;99.90
39103;DHT22;24847;48.218;16.414;2023-02-01T20:23:11;5.10;99.90
39103;DHT22;24847;48.218;16.414;2023-02-01T20:28:15;5.10;99.90
39103;DHT22;24847;48.218;16.414;2023-02-01T20:33:19;5.10;99.90
39103;DHT22;24847;48.218;16.414;2023-02-01T20:38:23;5.10;99.90
39103;DHT22;24847;48.218;16.414;2023-02-01T20:43:27;5.20;99.90
39103;DHT22;24847;48.218;16.414;2023-02-01T20:48:32;5.20;99.90
39103;DHT22;24847;48.218;16.414;2023-02-01T20:53:36;5.10;99.90
39103;DHT22;24847;48.218;16.414;2023-02-01T20:58:41;5.00;99.90
39103;DHT22;24847;48.218;16.414;2023-02-01T21:03:46;5.10;99.90
39103;DHT22;24847;48.218;16.414;2023-02-01T21:08:49;5.10;99.90
39103;DHT22;24847;48.218;16.414;2023-02-01T21:13:52;5.20;99.90
39103;DHT22;24847;48.218;16.414;2023-02-01T21:18:56;5.20;99.90
39103;DHT22;24847;48.218;16.414;2023-02-01T21:23:59;5.30;99.90
39103;DHT22;24847;48.218;16.414;2023-02-01T21:29:03;5.20;99.90
39103;DHT22;24847;48.218;16.414;2023-02-01T21:34:07;5.10;99.90
39103;DHT22;24847;48.218;16.414;2023-02-01T21:39:12;5.30;99.90
39103;DHT22;24847;48.218;16.414;2023-02-01T21:44:16;5.30;99.90
39103;DHT22;24847;48.218;16.414;2023-02-01T21:49:20;5.30;99.90
39103;DHT22;24847;48.218;16.414;2023-02-01T21:54:23;5.20;99.90
39103;DHT22;24847;48.218;16.414;2023-02-01T21:59:25;5.30;99.90
39103;DHT22;24847;48.218;16.414;2023-02-01T22:04:29;5.40;99.90
39103;DHT22;24847;48.218;16.414;2023-02-01T22:09:31;5.40;99.90
39103;DHT22;24847;48.218;16.414;2023-02-01T22:14:34;5.30;99.90
39103;DHT22;24847;48.218;16.414;2023-02-01T22:19:42;5.30;99.90
39103;DHT22;24847;48.218;16.414;2023-02-01T22:24:44;5.20;99.90
39103;DHT22;24847;48.218;16.414;2023-02-01T22:29:46;5.20;99.90
39103;DHT22;24847;48.218;16.414;2023-02-01T22:34:50;5.20;99.90
39103;DHT22;24847;48.218;16.414;2023-02-01T22:39:52;5.10;99.90
39103;DHT22;24847;48.218;16.414;2023-02-01T22:44:57;5.20;99.90
39103;DHT22;24847;48.218;16.414;2023-02-01T22:50:02;5.20;99.90
39103;DHT22;24847;48.218;16.414;2023-02-01T22:55:05;5.20;99.90
39103;DHT22;24847;48.218;16.414;2023-02-01T23:00:09;5.30;99.90
39103;DHT22;24847;48.218;16.414;2023-02-01T23:05:14;5.10;99.90
39103;DHT22;24847;48.218;16.414;2023-02-01T23:10:17;5.00;99.90
39103;DHT22;24847;48.218;16.414;2023-02-01T23:15:21;3.60;99.90
39103;DHT22;24847;48.218;16.414;2023-02-01T23:20:25;3.30;99.90
39103;DHT22;24847;48.218;16.414;2023-02-01T23:25:28;3.00;99.90
39103;DHT22;24847;48.218;16.414;2023-02-01T23:30:30;2.10;99.90
39103;DHT22;24847;48.218;16.414;2023-02-01T23:35:34;1.60;99.90
39103;DHT22;24847;48.218;16.414;2023-02-01T23:40:36;1.90;99.90
39103;DHT22;24847;48.218;16.414;2023-02-01T23:45:39;2.00;99.90
39103;DHT22;24847;48.218;16.414;2023-02-01T23:50:42;2.20;99.90
39103;DHT22;24847;48.218;16.414;2023-02-01T23:55:45;2.40;99.90
